Battle Mountain, NV

1:33 PM PDT on April 28, 2017 (GMT -0700)
Center of Battle Mountain | | Change Station
Active Advisory: Flood Warning

Elev 4523 ft 40.64 °N, 116.94 °W | Updated 17 seconds ago

Overcast
Overcast
46.0 °F
Feels Like 41 °F
N
11.4
Wind Variable Wind from NNW
Gusts 15.0 mph

Today
High -- | Low -- °F
--% Chance of Precip.
Yesterday
High -- | Low -- °F
Precip. -- in
Pressure 30.12 in
Visibility 10.0 miles
Clouds Few 6000 ft
Overcast 7000 ft
Windchill 41 °F
Dew Point 21 °F
Humidity 36%
Rainfall 0.00 in
Snow Depth Not available.
5:49 AM 7:40 PM
Waxing Crescent, 8% visible
METAR KWMC 281956Z AUTO 35013G21KT 10SM FEW060 OVC070 09/M06 A3013 RMK AO2 SLP198 T00941061
Pressure 30.12 in
Visibility 10.0 miles
Clouds Few 6000 ft
Overcast 7000 ft
Windchill 41 °F
Dew Point 21 °F
Humidity 36%
Rainfall 0.00 in
Snow Depth Not available.
5:49 AM 7:40 PM
Waxing Crescent, 8% visible
METAR KWMC 281956Z AUTO 35013G21KT 10SM FEW060 OVC070 09/M06 A3013 RMK AO2 SLP198 T00941061

Get Your Daily Forecast Email!

Thanks for signing up!

Be on the lookout for a verification email in your inbox.

You'll start receiving severe weather alerts in your inbox..

×

10-Day Weather Forecast

Almanac

Astronomy

Apr. 28, 2017 Rise Set
Actual Time
Civil Twilight
Nautical Twilight
Astronomical Twilight
Moon
Length of Visible Light
Length of Day
Tomorrow will be .
, % of the Moon is Illuminated

Today's Extremes

State Highs State Lows

Community

WunderPhotos

WunderBlog® & News

Nearby

Air Quality

  Air Quality AQ Index Pollutant
Not available.

Snow Depth

Station Depth Elevation

Earthquake Activity

City Distance Mag. Time & Date
Minimum magnitude displayed is 2.5.

Coastal Water Temperatures

Place Temperature

Stations

Nearby Weather Stations

Station Location Temp. Windchill Dew Point Humidity Wind Precip. Elev Updated Type
                   

Watches & Warnings

Flood Warning
Issued: 1:47 AM PDT Apr. 28, 2017 – National Weather Service

The Flood Warning continues for
the Humboldt River at Battle Mountain.
* Until further notice.
* At 1:15 am Friday the stage was 9.6 feet.
* Flood stage is 9.5 feet.
* Minor flooding is occurring and minor flooding is forecast.
* Forecast... the river will continue rising to near 9.9 feet by
Monday before midnight. Additional rises may be possible
thereafter.
* Impact... at 10.0 feet... minor to moderate lowland flooding
throughout reach. Some rural roads near the river are flooded.


Lat... Lon 4074 11638 4055 11649 4060 11691 4076 11710 4093 11704